Time;durP1;ratioP1;P1;durP2;ratioP2;P2;SDS_P1;SDS_P2;PMS_P1;PMS_P2;Temp;Humidity;BMP_temperature;BMP_pressure;BME280_temperature;BME280_humidity;BME280_pressure;Samples;Min_cycle;Max_cycle;Signal;HPM_P1;HPM_P2
2022/07/18 00:00:25;;;;;;;7.00;2.00;;;19.60;90.80;;;;;;5107087;27;20035;-54
2022/07/18 00:02:51;;;;;;;7.15;2.20;;;19.50;90.80;;;;;;5068657;28;20126;-54
2022/07/18 00:05:17;;;;;;;4.32;2.00;;;;;;;;;;5088503;28;20068;-55
2022/07/18 00:07:43;;;;;;;5.43;2.28;;;19.50;91.30;;;;;;5106984;28;20475;-55
2022/07/18 00:10:09;;;;;;;4.55;2.08;;;19.40;90.90;;;;;;5091941;27;20046;-55
2022/07/18 00:12:35;;;;;;;4.63;2.03;;;19.30;91.10;;;;;;5114298;27;20027;-54
2022/07/18 00:15:02;;;;;;;4.75;2.22;;;19.30;91.20;;;;;;5106440;27;20028;-57
2022/07/18 00:17:28;;;;;;;4.38;2.38;;;;;;;;;;5109464;27;20042;-55
2022/07/18 00:19:54;;;;;;;4.80;2.58;;;19.20;91.20;;;;;;5116057;27;20040;-54
2022/07/18 00:22:20;;;;;;;11.32;2.72;;;19.20;91.90;;;;;;5111316;27;20026;-55
2022/07/18 00:24:46;;;;;;;5.32;2.20;;;19.20;93.40;;;;;;5108283;27;20085;-55
2022/07/18 00:27:12;;;;;;;4.22;2.08;;;19.20;93.60;;;;;;5117253;27;20426;-55
2022/07/18 00:29:38;;;;;;;3.83;2.08;;;19.10;93.70;;;;;;5110480;27;20027;-55
2022/07/18 00:32:06;;;;;;;3.55;2.40;;;;;;;;;;5110661;27;20047;-55
2022/07/18 00:34:32;;;;;;;4.20;2.15;;;18.70;91.40;;;;;;5109309;27;20063;-55
2022/07/18 00:36:58;;;;;;;3.92;2.20;;;18.70;91.90;;;;;;5114470;27;20074;-55
2022/07/18 00:39:24;;;;;;;4.50;1.90;;;18.60;91.70;;;;;;5116724;27;20432;-54
2022/07/18 00:41:51;;;;;;;5.00;2.10;;;18.50;92.10;;;;;;5116927;27;20100;-55
2022/07/18 00:44:22;;;;;;;4.32;2.03;;;18.60;92.10;;;;;;5120881;27;20066;-54
2022/07/18 00:46:53;;;;;;;4.30;1.90;;;18.50;92.10;;;;;;5114062;27;20039;-55
2022/07/18 00:49:19;;;;;;;3.25;2.00;;;18.40;92.10;;;;;;5113402;27;20054;-54
2022/07/18 00:51:45;;;;;;;4.30;2.05;;;18.30;92.40;;;;;;5114924;27;20039;-55
2022/07/18 00:54:12;;;;;;;3.13;2.08;;;18.30;92.40;;;;;;5117359;27;20024;-55
2022/07/18 00:56:38;;;;;;;3.20;2.00;;;18.20;92.50;;;;;;5119050;27;20030;-54
2022/07/18 00:59:04;;;;;;;3.25;2.00;;;18.10;92.60;;;;;;5110639;27;20085;-55
2022/07/18 01:01:48;;;;;;;2.65;1.80;;;18.10;92.50;;;;;;5088758;27;20031;-54
2022/07/18 01:04:18;;;;;;;3.97;1.98;;;18.20;92.50;;;;;;5118120;27;20020;-54
2022/07/18 01:06:45;;;;;;;3.05;1.95;;;18.30;92.50;;;;;;5110888;27;20073;-54
2022/07/18 01:09:11;;;;;;;2.25;1.60;;;18.30;92.30;;;;;;5070109;27;20394;-54
2022/07/18 01:11:37;;;;;;;3.70;2.00;;;18.40;91.90;;;;;;5111709;27;20020;-54
2022/07/18 01:14:04;;;;;;;2.83;1.73;;;18.40;92.10;;;;;;5109777;27;20043;-54
2022/07/18 01:16:31;;;;;;;3.28;1.92;;;18.40;92.40;;;;;;5107355;27;20027;-54
2022/07/18 01:18:57;;;;;;;5.32;1.80;;;18.30;92.20;;;;;;5110154;27;20539;-54
2022/07/18 01:21:23;;;;;;;3.55;1.88;;;18.40;92.30;;;;;;5112480;27;20031;-54
2022/07/18 01:23:49;;;;;;;9.07;3.10;;;18.40;92.30;;;;;;5110233;27;20039;-54
2022/07/18 01:26:16;;;;;;;4.25;2.00;;;18.40;92.40;;;;;;5106730;27;20036;-54
2022/07/18 01:28:44;;;;;;;4.07;2.10;;;18.40;92.40;;;;;;5115577;27;20024;-54
2022/07/18 01:31:10;;;;;;;5.47;2.13;;;18.50;92.60;;;;;;5110874;27;20061;-54
2022/07/18 01:33:36;;;;;;;4.07;2.30;;;18.50;92.60;;;;;;5109562;27;20051;-54
2022/07/18 01:36:03;;;;;;;4.95;2.15;;;18.40;92.70;;;;;;5113291;27;20107;-54
2022/07/18 01:38:31;;;;;;;2.90;1.77;;;18.40;92.80;;;;;;5110446;27;20046;-54
2022/07/18 01:40:57;;;;;;;34.80;8.25;;;18.40;92.90;;;;;;5108426;27;20047;-54
2022/07/18 01:43:24;;;;;;;14.88;3.42;;;18.40;93.10;;;;;;5095698;27;20459;-54
2022/07/18 01:45:50;;;;;;;5.10;2.10;;;18.30;93.20;;;;;;5067329;28;20093;-54
2022/07/18 01:48:15;;;;;;;7.18;2.40;;;18.30;93.20;;;;;;5116393;27;20804;-54
2022/07/18 01:50:41;;;;;;;8.48;2.70;;;18.30;93.30;;;;;;5114409;27;20111;-55
2022/07/18 01:53:07;;;;;;;8.88;2.72;;;18.20;93.40;;;;;;5119460;27;20493;-55
2022/07/18 01:55:33;;;;;;;6.88;2.22;;;18.20;93.50;;;;;;5092700;28;20031;-56
2022/07/18 01:57:59;;;;;;;10.00;3.08;;;18.20;93.40;;;;;;5115742;27;20027;-55
2022/07/18 02:00:25;;;;;;;8.13;2.90;;;18.20;93.50;;;;;;5114320;27;20066;-55
2022/07/18 02:02:51;;;;;;;7.35;3.20;;;18.10;93.50;;;;;;5066274;28;20101;-55
2022/07/18 02:05:16;;;;;;;4.28;2.33;;;18.10;93.60;;;;;;5091909;28;20043;-55
2022/07/18 02:07:42;;;;;;;7.65;2.67;;;18.00;93.70;;;;;;5112221;27;20579;-55
2022/07/18 02:10:11;;;;;;;8.52;2.90;;;17.90;93.80;;;;;;5090990;27;20448;-55
2022/07/18 02:12:38;;;;;;;5.65;2.72;;;17.90;93.90;;;;;;5121538;27;20028;-55
2022/07/18 02:15:05;;;;;;;5.88;2.65;;;17.90;93.80;;;;;;5119803;27;20073;-55
2022/07/18 02:17:31;;;;;;;3.92;2.53;;;17.90;93.90;;;;;;5113475;27;20036;-55
2022/07/18 02:19:58;;;;;;;3.75;2.45;;;17.80;94.10;;;;;;5114461;27;20027;-55
2022/07/18 02:22:24;;;;;;;6.68;2.72;;;17.80;94.10;;;;;;5095835;28;20031;-56
2022/07/18 02:24:51;;;;;;;3.13;2.00;;;17.80;94.00;;;;;;5117196;27;20517;-55
2022/07/18 02:27:17;;;;;;;4.22;2.15;;;17.70;93.80;;;;;;5052770;27;20039;-55
2022/07/18 02:29:43;;;;;;;4.57;2.30;;;17.60;93.80;;;;;;5114319;27;20034;-55
2022/07/18 02:32:09;;;;;;;4.97;2.42;;;17.50;93.90;;;;;;5074921;28;20044;-55
2022/07/18 02:34:35;;;;;;;4.97;2.67;;;17.40;93.90;;;;;;5113751;27;20979;-55
2022/07/18 02:37:01;;;;;;;3.70;2.33;;;17.50;94.00;;;;;;5062228;27;20173;-55
2022/07/18 02:39:28;;;;;;;8.55;2.95;;;17.40;94.00;;;;;;5078739;28;20047;-55
2022/07/18 02:41:54;;;;;;;4.57;2.42;;;17.40;94.20;;;;;;5118197;27;20027;-55
2022/07/18 02:44:20;;;;;;;3.17;2.00;;;17.30;94.20;;;;;;5118015;27;20065;-55
2022/07/18 02:46:46;;;;;;;4.15;2.45;;;17.20;94.30;;;;;;5120473;27;20065;-55
2022/07/18 02:49:26;;;;;;;3.50;2.10;;;17.00;94.60;;;;;;5105027;27;20047;-55
2022/07/18 02:51:53;;;;;;;5.07;2.13;;;16.90;94.80;;;;;;5128651;27;20027;-55
2022/07/18 02:54:20;;;;;;;2.97;2.22;;;16.90;95.00;;;;;;5069236;27;20077;-55
2022/07/18 02:56:46;;;;;;;3.08;1.98;;;16.80;95.00;;;;;;5125195;27;20059;-55
2022/07/18 02:59:11;;;;;;;3.50;2.45;;;16.70;95.20;;;;;;5124448;27;20078;-55
2022/07/18 03:01:37;;;;;;;4.75;2.00;;;;;;;;;;5071867;27;20062;-55
2022/07/18 03:04:03;;;;;;;2.63;2.13;;;16.90;95.20;;;;;;5083153;27;20043;-55
2022/07/18 03:06:29;;;;;;;3.78;2.20;;;16.80;95.30;;;;;;5092114;27;20079;-55
2022/07/18 03:08:55;;;;;;;6.25;2.42;;;16.90;95.30;;;;;;5126811;27;20031;-55
2022/07/18 03:11:21;;;;;;;5.07;2.05;;;16.90;95.40;;;;;;5125792;27;20035;-55
2022/07/18 03:13:46;;;;;;;2.60;1.90;;;17.00;95.50;;;;;;5122855;27;20041;-55
2022/07/18 03:16:12;;;;;;;5.22;2.05;;;17.00;95.60;;;;;;5108076;27;20130;-55
2022/07/18 03:18:38;;;;;;;23.45;3.72;;;16.90;96.50;;;;;;5078161;27;20075;-55
2022/07/18 03:21:04;;;;;;;8.48;2.80;;;16.90;99.90;;;;;;5039651;28;20032;-55
2022/07/18 03:23:30;;;;;;;3.25;2.10;;;17.10;95.40;;;;;;5123791;27;20028;-55
2022/07/18 03:25:56;;;;;;;4.15;2.00;;;16.80;99.90;;;;;;5118690;27;20027;-55
2022/07/18 03:28:22;;;;;;;4.93;1.77;;;16.90;95.40;;;;;;5080550;27;20367;-55
2022/07/18 03:30:47;;;;;;;4.07;2.08;;;16.90;95.30;;;;;;5079443;27;20431;-55
2022/07/18 03:33:13;;;;;;;3.10;1.80;;;16.80;99.90;;;;;;5126839;27;20028;-55
2022/07/18 03:35:39;;;;;;;2.55;1.98;;;16.70;95.60;;;;;;5091537;27;20031;-55
2022/07/18 03:38:05;;;;;;;2.30;1.50;;;16.70;95.60;;;;;;5084879;28;20031;-55
2022/07/18 03:40:31;;;;;;;3.60;2.10;;;16.80;95.90;;;;;;5082790;28;20071;-55
2022/07/18 03:42:56;;;;;;;5.15;2.45;;;16.80;95.80;;;;;;5126348;28;20066;-54
2022/07/18 03:45:22;;;;;;;5.63;1.83;;;16.90;95.70;;;;;;5102784;28;20535;-55
2022/07/18 03:47:48;;;;;;;6.10;2.10;;;17.00;95.80;;;;;;5121829;28;20027;-54
2022/07/18 03:50:14;;;;;;;3.40;1.60;;;17.10;95.80;;;;;;5062771;28;20048;-54
2022/07/18 03:52:40;;;;;;;2.47;1.40;;;16.90;96.00;;;;;;5111599;28;20028;-54
2022/07/18 03:55:06;;;;;;;5.97;1.77;;;16.80;96.00;;;;;;5112366;28;20140;-54
2022/07/18 03:57:32;;;;;;;4.93;1.77;;;16.80;96.20;;;;;;5111551;28;20525;-54
2022/07/18 03:59:58;;;;;;;8.13;1.80;;;17.00;96.20;;;;;;5111454;28;20074;-54
2022/07/18 04:02:24;;;;;;;4.32;1.90;;;17.00;96.10;;;;;;5099122;28;20459;-54
2022/07/18 04:04:49;;;;;;;2.20;1.80;;;17.00;96.40;;;;;;5108420;28;20035;-55
2022/07/18 04:07:15;;;;;;;5.93;1.65;;;17.00;96.60;;;;;;5111362;28;20086;-54
2022/07/18 04:09:41;;;;;;;6.63;2.30;;;16.90;96.80;;;;;;5111577;28;20028;-54
2022/07/18 04:12:06;;;;;;;8.35;2.40;;;17.00;96.60;;;;;;5112396;28;20451;-54
2022/07/18 04:14:32;;;;;;;11.02;3.05;;;17.10;96.90;;;;;;5107103;28;20051;-54
2022/07/18 04:16:58;;;;;;;8.30;2.60;;;17.10;97.40;;;;;;5106313;28;20036;-55
2022/07/18 04:19:25;;;;;;;8.40;2.97;;;17.10;97.90;;;;;;5111197;28;20039;-55
2022/07/18 04:21:50;;;;;;;4.72;2.60;;;17.20;98.20;;;;;;5110644;28;20059;-55
2022/07/18 04:24:16;;;;;;;5.68;2.70;;;17.20;98.10;;;;;;5109420;28;20046;-55
2022/07/18 04:26:42;;;;;;;8.45;2.35;;;17.10;98.60;;;;;;5111995;28;20034;-55
2022/07/18 04:29:08;;;;;;;4.25;2.33;;;17.30;98.70;;;;;;5111310;28;20038;-55
2022/07/18 04:31:34;;;;;;;4.63;2.42;;;17.50;98.70;;;;;;5110694;28;20023;-54
2022/07/18 04:33:59;;;;;;;7.28;3.05;;;17.60;99.10;;;;;;5111435;28;20036;-55
2022/07/18 04:36:25;;;;;;;6.55;2.55;;;17.70;99.30;;;;;;5112035;28;20140;-54
2022/07/18 04:38:51;;;;;;;6.63;2.92;;;17.80;99.90;;;;;;5109940;28;20051;-55
2022/07/18 04:41:19;;;;;;;6.28;2.80;;;17.90;99.90;;;;;;5102452;28;20031;-55
2022/07/18 04:43:45;;;;;;;13.02;3.10;;;17.90;99.90;;;;;;5111204;28;20474;-55
2022/07/18 04:46:11;;;;;;;7.38;3.35;;;18.00;99.90;;;;;;5112735;28;20077;-55
2022/07/18 04:48:38;;;;;;;8.10;3.30;;;18.00;99.90;;;;;;5114522;28;20031;-55
2022/07/18 04:51:04;;;;;;;9.90;3.72;;;18.10;99.90;;;;;;5114885;28;20031;-55
2022/07/18 04:53:30;;;;;;;4.57;3.03;;;18.00;99.90;;;;;;5100430;28;20081;-55
2022/07/18 04:55:55;;;;;;;6.80;3.05;;;18.50;99.90;;;;;;5113861;28;20035;-54
2022/07/18 04:58:21;;;;;;;5.05;2.85;;;18.20;99.90;;;;;;5114421;28;20024;-56
2022/07/18 05:00:47;;;;;;;6.50;3.17;;;18.30;99.90;;;;;;5111013;28;20408;-54
2022/07/18 05:03:14;;;;;;;6.40;2.65;;;18.20;99.90;;;;;;5071695;28;20035;-54
2022/07/18 05:05:40;;;;;;;7.20;3.20;;;18.40;99.90;;;;;;5084452;28;20512;-55
2022/07/18 05:08:06;;;;;;;6.93;3.25;;;18.60;99.90;;;;;;5111146;28;20032;-54
2022/07/18 05:10:32;;;;;;;7.82;2.95;;;18.70;99.90;;;;;;5106450;28;20082;-54
2022/07/18 05:12:58;;;;;;;7.45;2.70;;;18.70;99.90;;;;;;5109940;28;20047;-55
2022/07/18 05:15:25;;;;;;;8.85;3.05;;;18.50;99.90;;;;;;5105242;28;20054;-55
2022/07/18 05:17:52;;;;;;;4.70;2.75;;;18.60;99.90;;;;;;5109835;28;20028;-54
2022/07/18 05:20:20;;;;;;;6.82;3.00;;;18.80;99.90;;;;;;5102179;28;20070;-54
2022/07/18 05:22:47;;;;;;;5.78;2.50;;;18.70;99.90;;;;;;5078599;28;20390;-54
2022/07/18 05:25:13;;;;;;;4.28;2.35;;;18.90;99.90;;;;;;5114194;28;20023;-55
2022/07/18 05:27:39;;;;;;;8.15;2.67;;;19.00;99.90;;;;;;5075756;28;20032;-54
2022/07/18 05:30:07;;;;;;;4.40;2.38;;;19.20;99.90;;;;;;5113639;28;20173;-54
2022/07/18 05:32:33;;;;;;;5.88;2.35;;;19.40;99.90;;;;;;5039301;28;20129;-54
2022/07/18 05:34:59;;;;;;;5.40;2.45;;;19.50;99.90;;;;;;5113672;28;20040;-54
2022/07/18 05:37:25;;;;;;;5.80;2.53;;;19.60;99.90;;;;;;5114100;28;20053;-55
2022/07/18 05:39:51;;;;;;;5.25;2.40;;;19.70;99.90;;;;;;5096227;28;20047;-54
2022/07/18 05:42:18;;;;;;;6.97;2.60;;;19.80;99.90;;;;;;5113797;28;20028;-54
2022/07/18 05:44:44;;;;;;;3.92;2.25;;;19.80;99.90;;;;;;5113698;28;20089;-54
2022/07/18 05:47:10;;;;;;;11.82;3.50;;;20.00;99.90;;;;;;5047736;28;20395;-54
2022/07/18 05:49:36;;;;;;;7.93;3.45;;;20.10;99.90;;;;;;5113772;28;20047;-55
2022/07/18 05:52:01;;;;;;;5.68;2.40;;;20.60;99.90;;;;;;5060511;28;20036;-54
2022/07/18 05:54:27;;;;;;;5.95;2.55;;;20.40;99.90;;;;;;5060637;28;20047;-55
2022/07/18 05:56:53;;;;;;;8.13;2.33;;;20.60;99.90;;;;;;5113894;28;20129;-54
2022/07/18 05:59:20;;;;;;;5.85;2.20;;;20.80;99.90;;;;;;5113881;28;20035;-55
2022/07/18 06:01:46;;;;;;;6.53;2.85;;;20.90;99.00;;;;;;5114066;28;20028;-54
2022/07/18 06:04:11;;;;;;;3.92;2.22;;;21.00;98.80;;;;;;5113347;28;20367;-54
2022/07/18 06:06:37;;;;;;;8.02;3.00;;;21.10;99.20;;;;;;5077138;28;20078;-54
2022/07/18 06:09:04;;;;;;;5.95;2.55;;;21.20;97.60;;;;;;5062099;28;20093;-54
2022/07/18 06:11:30;;;;;;;8.88;3.55;;;21.10;97.80;;;;;;5113971;28;20036;-54
2022/07/18 06:13:56;;;;;;;5.10;2.45;;;21.10;97.70;;;;;;5113350;28;20031;-54
2022/07/18 06:16:22;;;;;;;5.43;2.15;;;21.30;97.50;;;;;;5050139;28;20043;-55
2022/07/18 06:18:48;;;;;;;4.63;2.22;;;21.40;96.70;;;;;;5113082;28;20054;-55
2022/07/18 06:21:14;;;;;;;6.20;2.67;;;21.50;97.30;;;;;;5076913;28;20419;-54
2022/07/18 06:23:40;;;;;;;3.33;2.10;;;21.60;96.90;;;;;;5094761;28;20046;-54
2022/07/18 06:26:06;;;;;;;7.63;2.03;;;21.60;95.40;;;;;;5113092;28;20486;-54
2022/07/18 06:28:31;;;;;;;6.43;2.08;;;21.80;96.40;;;;;;5112897;28;20038;-54
2022/07/18 06:30:57;;;;;;;8.65;2.78;;;21.90;95.40;;;;;;5113266;28;20443;-54
2022/07/18 06:33:23;;;;;;;4.05;2.00;;;;;;;;;;5060351;28;20043;-55
2022/07/18 06:35:49;;;;;;;4.57;2.10;;;22.10;95.50;;;;;;5113019;28;20035;-54
2022/07/18 06:38:16;;;;;;;4.00;1.80;;;22.10;93.50;;;;;;5112675;28;20038;-54
2022/07/18 06:40:43;;;;;;;8.05;2.40;;;22.50;99.90;;;;;;5112971;28;20032;-55
2022/07/18 06:43:09;;;;;;;5.47;2.10;;;22.30;94.00;;;;;;5095096;28;20036;-54
2022/07/18 06:45:35;;;;;;;7.53;2.20;;;22.40;94.60;;;;;;5112565;28;20036;-55
2022/07/18 06:48:01;;;;;;;6.30;2.08;;;22.50;93.90;;;;;;5076576;28;20112;-54
2022/07/18 06:50:27;;;;;;;6.75;2.15;;;;;;;;;;5112539;28;20078;-55
2022/07/18 06:52:53;;;;;;;3.22;1.90;;;;;;;;;;5112564;28;20031;-54
2022/07/18 06:55:19;;;;;;;6.38;2.03;;;26.30;96.60;;;;;;5112419;28;20427;-55
2022/07/18 06:57:45;;;;;;;5.93;2.20;;;23.20;95.20;;;;;;5112894;28;20134;-55
2022/07/18 07:00:13;;;;;;;4.93;1.98;;;23.40;95.20;;;;;;5112273;28;20032;-55
2022/07/18 07:02:43;;;;;;;6.95;3.25;;;;;;;;;;5049460;28;20047;-55
2022/07/18 07:05:10;;;;;;;5.75;2.58;;;;;;;;;;5112187;28;20390;-55
2022/07/18 07:07:36;;;;;;;3.35;2.63;;;23.00;99.90;;;;;;5112904;28;20023;-55
2022/07/18 07:10:03;;;;;;;5.03;2.10;;;23.70;92.90;;;;;;5111645;28;20105;-55
2022/07/18 07:12:29;;;;;;;4.50;2.33;;;;;;;;;;5111980;28;20055;-55
2022/07/18 07:14:56;;;;;;;6.28;1.80;;;;;;;;;;5112065;28;20040;-55
2022/07/18 07:17:21;;;;;;;9.98;2.13;;;24.10;99.90;;;;;;5112166;28;20027;-55
2022/07/18 07:19:47;;;;;;;3.92;1.67;;;;;;;;;;5112340;28;20049;-55
2022/07/18 07:22:13;;;;;;;3.10;1.90;;;;;;;;;;5112325;28;20099;-55
2022/07/18 07:24:40;;;;;;;5.78;1.75;;;;;;;;;;5111944;28;20034;-51
2022/07/18 07:27:06;;;;;;;3.75;1.67;;;;;;;;;;5075841;28;20048;-52
2022/07/18 07:29:32;;;;;;;6.25;1.98;;;24.70;99.90;;;;;;5112543;28;20027;-51
2022/07/18 07:31:59;;;;;;;9.63;1.88;;;;;;;;;;5111678;28;20042;-51
2022/07/18 07:34:24;;;;;;;7.72;2.25;;;25.10;99.90;;;;;;5111864;28;20024;-52
2022/07/18 07:36:51;;;;;;;10.38;3.13;;;;;;;;;;5111173;28;20032;-51
2022/07/18 07:39:16;;;;;;;7.45;2.20;;;25.40;96.70;;;;;;5111631;28;20032;-51
2022/07/18 07:41:42;;;;;;;5.28;1.88;;;25.50;90.10;;;;;;5112638;28;20035;-51
2022/07/18 07:44:08;;;;;;;7.63;2.40;;;;;;;;;;5075716;28;20059;-51
2022/07/18 07:46:34;;;;;;;8.82;2.42;;;25.80;94.00;;;;;;5083635;28;20126;-51
2022/07/18 07:49:00;;;;;;;8.48;2.33;;;25.70;89.50;;;;;;5112097;28;20176;-51
2022/07/18 07:51:27;;;;;;;7.03;1.73;;;25.80;88.30;;;;;;5111878;28;20045;-51
2022/07/18 07:53:53;;;;;;;5.55;2.05;;;25.90;87.70;;;;;;5111467;28;20115;-51
2022/07/18 07:56:19;;;;;;;5.13;1.70;;;26.00;86.80;;;;;;5112441;28;20116;-51
2022/07/18 07:58:45;;;;;;;8.05;2.03;;;26.20;86.80;;;;;;5111293;28;20035;-51
2022/07/18 08:01:17;;;;;;;4.35;1.70;;;26.30;85.30;;;;;;5092836;28;20042;-51
2022/07/18 08:03:44;;;;;;;3.30;1.67;;;26.60;87.90;;;;;;5111762;28;20062;-51
2022/07/18 08:06:10;;;;;;;5.22;1.85;;;26.60;85.60;;;;;;5111370;28;20035;-51
2022/07/18 08:08:36;;;;;;;5.45;1.75;;;;;;;;;;5111501;28;20038;-52
2022/07/18 08:11:02;;;;;;;5.88;2.00;;;26.90;85.20;;;;;;5111542;28;20024;-52
2022/07/18 08:13:28;;;;;;;2.40;1.83;;;26.90;85.70;;;;;;5111972;28;20063;-51
2022/07/18 08:15:54;;;;;;;5.35;1.75;;;27.10;85.10;;;;;;5111285;28;20024;-57
2022/07/18 08:18:20;;;;;;;2.95;1.60;;;;;;;;;;5111450;28;20032;-52
2022/07/18 08:20:45;;;;;;;8.45;1.65;;;27.00;99.90;;;;;;5111751;28;20122;-53
2022/07/18 08:23:11;;;;;;;6.55;2.20;;;27.40;82.60;;;;;;5116139;28;20457;-52
2022/07/18 08:25:39;;;;;;;6.63;1.90;;;27.80;84.00;;;;;;5115328;28;20023;-56
2022/07/18 08:28:06;;;;;;;4.32;1.70;;;27.60;83.90;;;;;;5115193;28;20046;-54
2022/07/18 08:30:33;;;;;;;4.45;1.33;;;27.50;80.70;;;;;;5115213;28;20034;-51
2022/07/18 08:33:00;;;;;;;3.50;1.60;;;27.40;78.00;;;;;;5112614;28;20063;-51
2022/07/18 08:35:28;;;;;;;5.35;1.48;;;27.70;79.80;;;;;;5115304;28;20031;-53
2022/07/18 08:37:54;;;;;;;3.80;1.63;;;;;;;;;;5110317;28;20427;-54
2022/07/18 08:40:20;;;;;;;3.65;1.35;;;28.20;78.70;;;;;;5115983;28;20043;-52
2022/07/18 08:42:49;;;;;;;3.55;1.83;;;28.30;77.90;;;;;;5114979;28;20032;-55
2022/07/18 08:45:15;;;;;;;10.00;2.40;;;28.50;79.50;;;;;;5115012;28;20486;-56
2022/07/18 08:47:41;;;;;;;2.65;1.23;;;;;;;;;;5108352;28;20028;-55
2022/07/18 08:50:08;;;;;;;4.65;1.30;;;28.80;77.50;;;;;;5114659;28;20063;-55
2022/07/18 08:52:35;;;;;;;5.78;1.73;;;28.60;75.10;;;;;;5114993;28;20036;-54
2022/07/18 08:55:01;;;;;;;4.80;1.70;;;28.70;77.20;;;;;;5115910;28;20031;-55
2022/07/18 08:57:29;;;;;;;4.68;1.30;;;28.90;77.90;;;;;;5114867;28;20573;-55
2022/07/18 08:59:54;;;;;;;2.55;1.20;;;29.10;77.30;;;;;;5114463;28;20047;-54
2022/07/18 09:02:27;;;;;;;4.30;1.52;;;29.20;74.10;;;;;;5062014;28;20050;-55
2022/07/18 09:04:53;;;;;;;2.88;1.27;;;29.40;75.40;;;;;;5115732;28;20027;-56
2022/07/18 09:07:30;;;;;;;5.03;1.40;;;29.30;74.20;;;;;;5114877;28;20050;-55
2022/07/18 09:10:03;;;;;;;4.95;1.52;;;29.40;74.10;;;;;;5114554;28;20160;-54
2022/07/18 09:12:33;;;;;;;5.32;1.20;;;29.60;74.70;;;;;;5078444;28;20043;-54
2022/07/18 09:15:13;;;;;;;8.00;1.65;;;29.80;74.80;;;;;;5114816;28;20024;-55
2022/07/18 09:17:39;;;;;;;10.07;1.88;;;29.80;85.00;;;;;;5114267;28;20036;-54
2022/07/18 09:20:15;;;;;;;4.32;1.17;;;;;;;;;;5115148;28;20095;-56
2022/07/18 09:22:44;;;;;;;2.70;1.13;;;30.10;73.50;;;;;;5114126;28;20088;-56
2022/07/18 09:25:17;;;;;;;2.13;1.02;;;30.00;68.80;;;;;;5114074;28;20032;-56
2022/07/18 09:27:48;;;;;;;1.50;0.90;;;30.10;69.30;;;;;;5108238;28;20031;-54
2022/07/18 09:30:24;;;;;;;2.50;0.93;;;30.00;78.40;;;;;;5115051;28;20382;-56
2022/07/18 09:33:02;;;;;;;3.05;1.30;;;30.70;86.80;;;;;;5113701;28;20283;-54
2022/07/18 09:35:29;;;;;;;4.75;1.55;;;;;;;;;;5114098;28;20043;-56
2022/07/18 09:38:07;;;;;;;2.53;1.75;;;;;;;;;;5114138;28;20510;-56
2022/07/18 09:40:38;;;;;;;2.05;1.63;;;30.70;68.00;;;;;;5114358;28;20080;-57
2022/07/18 09:43:08;;;;;;;3.75;1.50;;;;;;;;;;5113534;28;20491;-57
2022/07/18 09:45:35;;;;;;;3.75;1.55;;;;;;;;;;5113823;28;20554;-57
2022/07/18 09:48:06;;;;;;;3.20;1.20;;;31.30;71.20;;;;;;5113590;28;20041;-54
2022/07/18 09:50:43;;;;;;;1.77;1.13;;;30.90;68.80;;;;;;5113656;28;20433;-54
2022/07/18 09:53:15;;;;;;;3.88;1.20;;;30.60;68.10;;;;;;5105399;28;20406;-55
2022/07/18 09:56:07;;;;;;;2.35;1.20;;;30.70;69.70;;;;;;5113340;28;20036;-57
2022/07/18 09:58:38;;;;;;;4.82;1.25;;;30.50;68.80;;;;;;5110401;28;20072;-57
2022/07/18 10:01:06;;;;;;;3.13;1.55;;;30.90;68.90;;;;;;5109161;28;20119;-56
2022/07/18 10:03:32;;;;;;;2.50;1.10;;;30.30;67.20;;;;;;5113538;28;20059;-54
2022/07/18 10:05:59;;;;;;;3.65;1.05;;;30.80;69.00;;;;;;5095925;28;20264;-56
2022/07/18 10:08:30;;;;;;;2.00;1.42;;;31.20;70.30;;;;;;5112928;28;20027;-54
2022/07/18 10:10:59;;;;;;;3.63;1.20;;;31.40;68.40;;;;;;5112587;28;20024;-54
2022/07/18 10:13:26;;;;;;;3.00;1.35;;;31.20;67.30;;;;;;5113132;28;20074;-53
2022/07/18 10:15:52;;;;;;;1.75;1.50;;;30.70;66.80;;;;;;5113071;28;20062;-53
2022/07/18 10:18:21;;;;;;;6.63;1.40;;;30.70;67.80;;;;;;5113606;28;20035;-54
2022/07/18 10:21:18;;;;;;;3.67;1.08;;;31.20;67.90;;;;;;5111968;27;20024;-55
2022/07/18 10:23:45;;;;;;;3.78;1.42;;;30.90;66.90;;;;;;5113183;27;20027;-52
2022/07/18 10:26:13;;;;;;;2.35;1.20;;;;;;;;;;5116061;27;20030;-54
2022/07/18 10:31:36;;;;;;;3.60;1.50;;;32.50;82.50;;;;;;5117184;27;20035;-52
2022/07/18 10:34:09;;;;;;;10.23;1.48;;;32.70;67.90;;;;;;5097271;28;20038;-56
2022/07/18 10:37:06;;;;;;;7.13;1.70;;;32.10;67.90;;;;;;5116465;27;20039;-52
2022/07/18 10:39:44;;;;;;;4.03;1.23;;;31.00;67.10;;;;;;5114431;27;20100;-55
2022/07/18 10:42:10;;;;;;;3.17;1.15;;;31.10;65.80;;;;;;5112424;27;20141;-56
2022/07/18 10:44:39;;;;;;;5.28;1.45;;;31.50;67.50;;;;;;5112929;27;20466;-57
2022/07/18 10:49:52;;;;;;;4.40;1.65;;;31.70;67.80;;;;;;5116417;27;20503;-57
2022/07/18 10:52:27;;;;;;;4.88;3.55;;;32.00;68.10;;;;;;5103199;27;20084;-53
2022/07/18 10:55:02;;;;;;;3.63;1.40;;;32.20;69.00;;;;;;5099623;27;20104;-53
2022/07/18 10:57:29;;;;;;;5.90;1.33;;;;;;;;;;5109452;27;20027;-50
2022/07/18 11:00:07;;;;;;;4.40;1.45;;;32.70;66.40;;;;;;5109299;27;20088;-53
2022/07/18 11:02:35;;;;;;;5.20;1.50;;;32.70;66.80;;;;;;5109256;27;20032;-54
2022/07/18 11:05:01;;;;;;;4.75;1.30;;;;;;;;;;5105933;27;20081;-51
2022/07/18 11:07:28;;;;;;;2.38;1.35;;;;;;;;;;5110855;27;20462;-52
2022/07/18 11:09:54;;;;;;;3.95;1.30;;;;;;;;;;5102374;27;20118;-52
2022/07/18 11:12:30;;;;;;;10.93;1.60;;;;;;;;;;5112474;27;20020;-51
2022/07/18 11:15:10;;;;;;;2.35;1.60;;;;;;;;;;5099385;27;20035;-52
2022/07/18 11:17:52;;;;;;;3.80;1.45;;;;;;;;;;5106343;28;20036;-51
2022/07/18 11:20:25;;;;;;;5.40;1.55;;;;;;;;;;5107949;27;20035;-51
2022/07/18 11:22:51;;;;;;;3.42;1.77;;;;;;;;;;5109016;27;20080;-51
2022/07/18 11:25:20;;;;;;;3.70;1.70;;;;;;;;;;5109954;27;20057;-51
2022/07/18 11:27:46;;;;;;;3.85;1.90;;;;;;;;;;5103354;27;20735;-51
2022/07/18 11:30:22;;;;;;;4.28;1.98;;;;;;;;;;5102699;27;20032;-52
2022/07/18 11:32:49;;;;;;;10.25;2.30;;;;;;;;;;5117869;27;20538;-51
2022/07/18 11:35:15;;;;;;;4.85;2.47;;;;;;;;;;5100206;27;21068;-51
2022/07/18 11:38:04;;;;;;;6.57;2.58;;;33.30;72.80;;;;;;5106437;27;20028;-51
2022/07/18 11:40:30;;;;;;;5.43;1.90;;;33.40;66.20;;;;;;5118173;27;20082;-51
2022/07/18 11:42:59;;;;;;;4.28;2.33;;;33.20;66.10;;;;;;5106826;28;20023;-51
2022/07/18 11:45:24;;;;;;;6.35;2.60;;;33.10;66.10;;;;;;5071644;28;20046;-51
2022/07/18 11:47:52;;;;;;;5.60;2.00;;;33.10;66.90;;;;;;5085907;28;20047;-51
2022/07/18 11:50:33;;;;;;;6.88;2.50;;;32.70;68.10;;;;;;5101987;28;20051;-51
2022/07/18 11:52:59;;;;;;;5.32;2.55;;;32.80;69.20;;;;;;5103613;28;20019;-51
2022/07/18 11:55:38;;;;;;;5.20;2.85;;;33.00;71.20;;;;;;5114273;27;20077;-51
2022/07/18 11:58:11;;;;;;;4.45;2.55;;;;;;;;;;5109576;27;20043;-52
2022/07/18 12:00:37;;;;;;;2.50;1.95;;;;;;;;;;5116009;27;20368;-51
2022/07/18 12:03:30;;;;;;;4.20;2.20;;;32.60;63.70;;;;;;5107720;27;20509;-52
2022/07/18 12:05:56;;;;;;;6.28;2.50;;;32.50;64.20;;;;;;5072547;28;20470;-51
2022/07/18 12:08:35;;;;;;;3.45;2.33;;;;;;;;;;5019671;28;20151;-49
2022/07/18 12:11:13;;;;;;;4.90;2.58;;;33.20;95.60;;;;;;5069493;28;21508;-48
2022/07/18 12:14:01;;;;;;;3.85;2.00;;;33.20;65.00;;;;;;5074488;28;20136;-49
2022/07/18 12:16:29;;;;;;;2.60;1.88;;;;;;;;;;5063208;28;20085;-52
2022/07/18 12:19:11;;;;;;;3.22;2.00;;;33.40;67.10;;;;;;5068537;28;20554;-53
2022/07/18 12:22:24;;;;;;;4.15;2.00;;;33.50;71.10;;;;;;5070022;28;20025;-50
2022/07/18 12:24:57;;;;;;;4.18;2.25;;;34.00;86.70;;;;;;4962194;28;20039;-52
2022/07/18 12:27:32;;;;;;;4.43;2.78;;;33.90;64.10;;;;;;4965004;28;20053;-52
2022/07/18 12:30:18;;;;;;;6.07;2.53;;;33.60;63.90;;;;;;4983049;28;20035;-52
2022/07/18 12:32:46;;;;;;;5.60;2.50;;;33.50;63.80;;;;;;4986165;28;21392;-52
2022/07/18 12:35:18;;;;;;;6.35;3.03;;;33.60;65.30;;;;;;4971449;28;20039;-51
2022/07/18 12:38:00;;;;;;;2.67;2.33;;;;;;;;;;4980021;28;20125;-50
2022/07/18 12:40:53;;;;;;;7.55;2.60;;;34.40;64.00;;;;;;4976798;28;20038;-51
2022/07/18 12:43:26;;;;;;;5.65;2.83;;;34.70;64.50;;;;;;4987193;28;20056;-51
2022/07/18 12:45:53;;;;;;;4.50;2.75;;;33.30;64.80;;;;;;5027622;28;20124;-50
2022/07/18 12:48:19;;;;;;;6.18;2.80;;;33.80;64.80;;;;;;4991684;28;20142;-53
2022/07/18 12:50:46;;;;;;;4.32;2.83;;;34.10;64.60;;;;;;5018789;28;20065;-50
2022/07/18 12:53:13;;;;;;;5.55;2.85;;;33.50;64.20;;;;;;5034386;28;20528;-54
2022/07/18 12:55:39;;;;;;;4.07;3.17;;;33.50;63.90;;;;;;5005721;28;20041;-50
2022/07/18 12:58:06;;;;;;;9.25;3.33;;;33.70;70.50;;;;;;5032078;28;20037;-50
2022/07/18 13:00:32;;;;;;;4.65;2.38;;;34.20;67.10;;;;;;5071702;28;20040;-53
2022/07/18 13:02:59;;;;;;;6.07;2.80;;;33.90;82.60;;;;;;5096351;28;20023;-51
2022/07/18 13:05:29;;;;;;;3.20;2.47;;;;;;;;;;5105853;28;20019;-51
2022/07/18 13:07:55;;;;;;;4.07;2.35;;;;;;;;;;5106917;28;20085;-50
2022/07/18 13:10:22;;;;;;;3.35;2.70;;;;;;;;;;5105059;28;20036;-51
2022/07/18 13:12:48;;;;;;;7.00;2.88;;;34.40;92.20;;;;;;5109051;28;20056;-49